ADDS METAR Data INFO
IDs: Format: Raw Decoded Include TAF

Data at: 1340 UTC 25 Feb 2018

KSLO 251335Z AUTO 22008KT 10SM CLR 03/00 A3006 RMK AO2 T00301003
KSLO 251315Z AUTO 23008KT 10SM CLR 03/00 A3004 RMK AO2 T00301001
KSLO 251255Z AUTO 24007KT 10SM CLR 03/00 A3002 RMK AO2 T00280000
KSLO 251235Z AUTO 25008KT 10SM CLR 03/00 A3001 RMK AO2 T00300000
KSLO 251215Z AUTO 25005KT 10SM CLR 03/00 A3001 RMK AO2 T00301003
KSLO 251155Z AUTO 26008KT 10SM CLR 04/00 A2999 RMK AO2 70115 T00351005 10102 20032
KSLO 251135Z AUTO 25010G16KT 10SM CLR 04/00 A2998 RMK AO2 T00370000
KSLO 251115Z AUTO 24006KT 10SM CLR 03/01 A2997 RMK AO2 T00320010
KSLO 251055Z AUTO 26006KT 10SM CLR 04/01 A2996 RMK AO2 T00350007
KSLO 251035Z AUTO 27006KT 10SM CLR 04/01 A2996 RMK AO2 T00390008
KSLO 251015Z AUTO 28008KT 10SM CLR 04/01 A2996 RMK AO2 T00410008
KSLO 250955Z AUTO 27012KT 10SM CLR 04/01 A2995 RMK AO2 T00430007
KSLO 250935Z AUTO 28014G19KT 10SM CLR 05/01 A2993 RMK AO2 T00450005
KSLO 250915Z AUTO 28016G21KT 10SM CLR 05/00 A2992 RMK AO2 T00500002
KSLO 250855Z AUTO 28017G23KT 10SM CLR 05/01 A2992 RMK AO2 T00530006
KSLO 250835Z AUTO 28016G20KT 10SM SCT024 SCT029 06/01 A2992 RMK AO2 T00560012
KSLO 250815Z AUTO 29013G22KT 10SM SCT024 06/02 A2991 RMK AO2 T00600019
KSLO 250755Z AUTO 27021G28KT 10SM CLR 06/02 A2990 RMK AO2 T00640015
KSLO 250735Z AUTO 28023G31KT 10SM SCT034 07/02 A2988 RMK AO2 T00710016
KSLO 250715Z AUTO 27020G28KT 10SM SCT023 BKN029 BKN034 08/03 A2985 RMK AO2 T00790031
KSLO 250655Z AUTO 28021G32KT 10SM BKN023 OVC029 09/04 A2984 RMK AO2 T00850044
KSLO 250635Z AUTO 27023G32KT 10SM OVC025 09/04 A2982 RMK AO2 T00870041
KSLO 250615Z AUTO 28020G29KT 10SM SCT017 OVC025 10/05 A2981 RMK AO2 T00950052
KSLO 250555Z AUTO 27024G36KT 10SM SCT013 BKN021 OVC026 10/06 A2979 RMK AO2 60006 T01030055 10157 20103 401570058
KSLO 250535Z AUTO 27021G27KT 10SM OVC013 11/09 A2977 RMK AO2 T01120089
KSLO 250515Z AUTO 27024G31KT 10SM BKN015 BKN019 OVC035 13/10 A2973 RMK AO2 T01290098
KSLO 250455Z AUTO 26018G30KT 10SM OVC015 14/12 A2970 RMK AO2 T01440115
KSLO 250435Z AUTO 25021G26KT 10SM OVC015 15/12 A2967 RMK AO2 T01470121
KSLO 250415Z AUTO 24018G28KT 10SM OVC013 15/13 A2965 RMK AO2 T01510126
KSLO 250355Z AUTO 24023G27KT 10SM OVC011 16/13 A2964 RMK AO2 T01550134
KSLO 250335Z AUTO 23019G29KT 10SM OVC011 16/14 A2963 RMK AO2 T01560138
KSLO 250315Z AUTO 21016G22KT 10SM OVC011 15/14 A2961 RMK AO2 T01530138
KSLO 250255Z AUTO 20011G17KT 10SM SCT004 OVC013 15/14 A2961 RMK AO2 60006 T01470135
KSLO 250235Z AUTO 17008KT 10SM BKN004 OVC009 14/13 A2960 RMK AO2 T01400130
KSLO 250215Z AUTO 15005KT 10SM OVC006 14/13 A2960 RMK AO2 T01370127
KSLO 250155Z AUTO 13007KT 10SM OVC006 14/13 A2960 RMK AO2 T01350125
KSLO 250135Z AUTO 12007G14KT 10SM OVC004 13/12 A2961 RMK AO2 T01320123
KSLO 250115Z AUTO 13010KT 10SM OVC004 13/12 A2964 RMK AO2 T01310122
KSLO 250055Z AUTO 11008KT 10SM OVC004 13/12 A2964 RMK AO2 LTG DSNT SE P0006 T01300120
KSLO 250035Z AUTO 10009G15KT 10SM -RA BKN002 OVC046 13/12 A2964 RMK AO2 LTG DSNT E P0006 T01280120
KSLO 250015Z AUTO 10008KT 5SM +RA SCT006 BKN048 OVC055 13/12 A2966 RMK AO2 LTG DSNT E THRU S P0005 T01280120
KSLO 242355Z AUTO 10005KT 5SM +RA SCT004 BKN037 OVC055 13/12 A2970 RMK AO2 LTG DSNT SE P0029 60069 T01280120 10135 20127
KSLO 242335Z AUTO 07004KT 4SM +RA SCT004 BKN032 OVC041 13/12 A2973 RMK AO2 LTG DSNT S P0020 T01290120
KSLO 242315Z AUTO 11004KT 3SM +RA SCT006 BKN032 OVC041 13/12 A2975 RMK AO2 LTG DSNT S P0009 T01280120
KSLO 242255Z AUTO 09004KT 2SM +RA BKN004 OVC011 13/12 A2974 RMK AO2 P0028 T01280120
KSLO 242235Z AUTO 08006KT 4SM +RA BKN004 BKN018 OVC049 13/12 A2975 RMK AO2 P0018 T01270117
KSLO 242215Z AUTO 14004KT 2 1/2SM +RA OVC004 13/12 A2980 RMK AO2 LTG DSNT SW P0010 T01270117
KSLO 242155Z AUTO 13009KT 4SM +RA OVC004 13/12 A2980 RMK AO2 LTG DSNT SW P0011 T01280118
KSLO 242135Z AUTO 08006KT 4SM +RA OVC004 13/12 A2976 RMK AO2 LTG DSNT SE P0006 T01280118
KSLO 242115Z AUTO 12006KT 4SM RA OVC004 13/12 A2979 RMK AO2 T01300119
KSLO 242100Z AUTO 13006KT 3SM BR OVC004 13/12 A2980 RMK AO2 LTG DSNT S T01300119
KSLO 242035Z AUTO 12007KT 3SM BR OVC006 13/12 A2981 RMK AO2 LTG DSNT S T01310118
KSLO 242015Z AUTO 13008KT 5SM BR OVC006 13/12 A2984 RMK AO2 T01310117
KSLO 241955Z AUTO 13007KT 3SM BR OVC008 13/12 A2985 RMK AO2 T01310116
KSLO 241935Z AUTO 12006KT 5SM BR OVC008 13/11 A2985 RMK AO2 LTG DSNT SW T01330114
KSLO 241915Z AUTO 13009KT 110V170 10SM OVC008 14/11 A2986 RMK AO2 LTG DSNT SW T01350113
KSLO 241855Z AUTO 14010G14KT 10SM OVC008 14/11 A2987 RMK AO2 LTG DSNT S AND SW T01350114
KSLO 241835Z AUTO 13007KT 10SM OVC008 14/12 A2988 RMK AO2 T01350115
KSLO 241815Z AUTO 13006KT 10SM OVC008 13/11 A2989 RMK AO2 T01330114
KSLO 241755Z AUTO 13007KT 10SM OVC006 13/11 A2990 RMK AO2 60040 T01300112 10130 20067
KSLO 241735Z AUTO 14009KT 10SM OVC006 12/11 A2991 RMK AO2 T01240109
KSLO 241715Z AUTO 14009KT 10SM OVC006 12/11 A2992 RMK AO2 T01210107
KSLO 241655Z AUTO 13011G15KT 10SM OVC004 12/10 A2993 RMK AO2 T01160104
KSLO 241635Z AUTO 13010KT 10SM OVC004 11/10 A2994 RMK AO2 T01090098
KSLO 241615Z AUTO 12010G16KT 10SM -RA OVC004 10/09 A2994 RMK AO2 T01020092
KSLO 241555Z AUTO 14008KT 10SM OVC004 10/09 A2997 RMK AO2 T00950085
KSLO 241535Z AUTO 13010G17KT 7SM -RA OVC004 09/08 A2997 RMK AO2 T00900080
KSLO 241515Z AUTO 12011KT 10SM -RA OVC004 09/08 A2998 RMK AO2 T00850076
KSLO 241455Z AUTO 13010KT 10SM RA OVC004 08/07 A3000 RMK AO2 P0009 60040 T00800071
KSLO 241435Z AUTO 11008KT 5SM RA OVC004 08/07 A3001 RMK AO2 P0009 T00750066
KSLO 241415Z AUTO 12008KT 5SM +RA OVC004 07/07 A3003 RMK AO2 P0005 T00730065
KSLO 241355Z AUTO 10005KT 4SM RA OVC004 07/07 A3003 RMK AO2 P0019 T00730065
KSLO 241335Z AUTO 10006KT 2SM -RA OVC004 07/06 A3005 RMK AO2 P0014 T00710062
KSLO 241315Z AUTO 10005KT 1 3/4SM UP OVC004 07/06 A3007 RMK AO2 P0008 T00700061
KSLO 241255Z AUTO 09004KT 5SM +RA OVC004 07/06 A3006 RMK AO2 P0012 T00680060
KSLO 241235Z AUTO 07006KT 5SM +RA OVC004 07/06 A3004 RMK AO2 P0009 T00680060
KSLO 241215Z AUTO 08004KT 5SM RA OVC004 07/06 A3008 RMK AO2 P0003 T00680058
KSLO 241155Z AUTO 06006KT 2SM -RA OVC004 07/06 A3008 RMK AO2 P0019 60059 70064 T00670057 10067 20058
KSLO 241135Z AUTO 08007KT 5SM +RA BKN004 OVC016 07/06 A3007 RMK AO2 LTG DSNT SW P0010 T00650055
KSLO 241115Z AUTO 09007KT 5SM RA BKN004 BKN012 OVC019 06/05 A3005 RMK AO2 P0005 T00620052
KSLO 241055Z AUTO 10007KT 5SM +RA SCT004 BKN016 OVC080 06/05 A3005 RMK AO2 P0017 T00610051
KSLO 241035Z AUTO 08008KT 2 1/2SM UP SCT005 BKN050 OVC080 06/05 A3008 RMK AO2 P0013 T00600050
KSLO 241015Z AUTO 09006KT 3SM +RA BKN005 BKN033 OVC075 06/05 A3012 RMK AO2 P0006 T00600050
KSLO 240955Z AUTO 06004KT 3SM +RA BKN005 BKN039 OVC070 06/05 A3012 RMK AO2 P0011 T00600048
KSLO 240935Z AUTO 08005KT 5SM RA OVC005 06/05 A3012 RMK AO2 P0003 T00600048
KSLO 240915Z AUTO 07006KT 7SM +RA BKN005 BKN019 OVC065 06/05 A3011 RMK AO2 P0001 T00580047
KSLO 240855Z AUTO 07006KT 7SM RA OVC005 06/05 A3012 RMK AO2 P0004 60011 T00600048
KSLO 240835Z AUTO 05005KT 7SM RA OVC007 06/05 A3014 RMK AO2 P0002 T00600048
KSLO 240815Z AUTO 06005KT 7SM RA BKN007 OVC015 06/05 A3015 RMK AO2 P0001 T00600048
KSLO 240755Z AUTO 06005KT 5SM RA BKN005 OVC010 06/05 A3015 RMK AO2 P0005 T00610050
KSLO 240735Z AUTO 08006KT 7SM RA BKN005 OVC015 06/05 A3017 RMK AO2 P0001 T00620051
KSLO 240715Z AUTO 06007KT 7SM -RA BKN005 BKN018 OVC070 06/05 A3016 RMK AO2 LTG DSNT SW T00610050
KSLO 240655Z AUTO 05005KT 10SM RA SCT007 SCT027 OVC070 06/05 A3019 RMK AO2 LTG DSNT SW P0002 T00600049
KSLO 240635Z AUTO 04007KT 7SM RA BKN007 BKN027 OVC080 06/05 A3018 RMK AO2 P0002 T00610050
KSLO 240615Z AUTO 05003KT 5SM RA OVC007 06/05 A3022 RMK AO2 P0001 T00620050
KSLO 240555Z AUTO 03004KT 10SM -RA OVC007 06/05 A3022 RMK AO2 60005 T00630050 10098 20063 401140063
KSLO 240535Z AUTO 02008KT 10SM RA BKN007 BKN037 OVC080 07/05 A3020 RMK AO2 T00650053
KSLO 240515Z AUTO 02010KT 7SM RA BKN005 BKN009 OVC035 07/06 A3019 RMK AO2 T00670055
KSLO 240455Z AUTO 03004KT 7SM RA OVC005 07/06 A3023 RMK AO2 P0001 T00700058
KSLO 240435Z AUTO 36006KT 7SM -RA OVC005 07/06 A3022 RMK AO2 T00710059
KSLO 240415Z AUTO 36009KT 7SM -RA OVC005 07/06 A3022 RMK AO2 T00730061
KSLO 240355Z AUTO 36011KT 7SM RA OVC005 08/07 A3022 RMK AO2 P0004 T00790067
KSLO 240335Z AUTO 36007KT 7SM RA BKN005 BKN021 OVC085 08/07 A3021 RMK AO2 P0002 T00830071
KSLO 240315Z AUTO 04006KT 7SM RA SCT008 SCT025 OVC085 09/07 A3020 RMK AO2 P0001 T00850073
KSLO 240255Z AUTO 03004KT 7SM RA SCT021 SCT027 OVC085 09/08 A3021 RMK AO2 LTG DSNT SW T00870075
KSLO 240235Z AUTO 01004KT 10SM RA OVC085 09/08 A3022 RMK AO2 T00880075
KSLO 240215Z AUTO 35004KT 7SM RA OVC085 09/08 A3023 RMK AO2 T00900075
KSLO 240155Z AUTO 36004KT 7SM -RA SCT070 OVC085 09/08 A3023 RMK AO2 T00900077